sensor_id;sensor_type;location;lat;lon;timestamp;temperature;humidity
20459;DHT22;10388;52.314;7.938;2023-10-31T00:01:20;11.90;99.90
20459;DHT22;10388;52.314;7.938;2023-10-31T00:03:51;11.90;99.90
20459;DHT22;10388;52.314;7.938;2023-10-31T00:06:22;12.00;99.90
20459;DHT22;10388;52.314;7.938;2023-10-31T00:08:52;12.00;99.90
20459;DHT22;10388;52.314;7.938;2023-10-31T00:11:23;11.90;99.90
20459;DHT22;10388;52.314;7.938;2023-10-31T00:13:53;11.90;99.90
20459;DHT22;10388;52.314;7.938;2023-10-31T00:16:24;12.00;99.90
20459;DHT22;10388;52.314;7.938;2023-10-31T00:18:55;12.00;99.90
20459;DHT22;10388;52.314;7.938;2023-10-31T00:21:25;12.00;99.90
20459;DHT22;10388;52.314;7.938;2023-10-31T00:23:56;12.00;99.90
20459;DHT22;10388;52.314;7.938;2023-10-31T00:26:27;12.00;99.90
20459;DHT22;10388;52.314;7.938;2023-10-31T00:28:57;12.00;99.90
20459;DHT22;10388;52.314;7.938;2023-10-31T00:31:28;12.00;99.90
20459;DHT22;10388;52.314;7.938;2023-10-31T00:33:58;12.00;99.90
20459;DHT22;10388;52.314;7.938;2023-10-31T00:36:29;12.00;99.90
20459;DHT22;10388;52.314;7.938;2023-10-31T00:38:59;12.00;99.90
20459;DHT22;10388;52.314;7.938;2023-10-31T00:41:30;12.00;99.90
20459;DHT22;10388;52.314;7.938;2023-10-31T00:44:01;12.00;99.90
20459;DHT22;10388;52.314;7.938;2023-10-31T00:46:31;12.00;99.90
20459;DHT22;10388;52.314;7.938;2023-10-31T00:49:02;12.00;99.90
20459;DHT22;10388;52.314;7.938;2023-10-31T00:51:33;12.00;99.90
20459;DHT22;10388;52.314;7.938;2023-10-31T00:54:04;12.00;99.90
20459;DHT22;10388;52.314;7.938;2023-10-31T00:56:34;12.00;99.90
20459;DHT22;10388;52.314;7.938;2023-10-31T00:59:05;12.00;99.90
20459;DHT22;10388;52.314;7.938;2023-10-31T04:32:44;9.80;99.90
20459;DHT22;10388;52.314;7.938;2023-10-31T04:35:14;9.70;99.90
20459;DHT22;10388;52.314;7.938;2023-10-31T04:37:45;9.70;99.90
20459;DHT22;10388;52.314;7.938;2023-10-31T04:40:15;9.70;99.90
20459;DHT22;10388;52.314;7.938;2023-10-31T04:42:46;9.80;99.90
20459;DHT22;10388;52.314;7.938;2023-10-31T04:45:18;9.70;99.90
20459;DHT22;10388;52.314;7.938;2023-10-31T04:47:48;9.70;99.90
20459;DHT22;10388;52.314;7.938;2023-10-31T04:50:19;9.70;99.90
20459;DHT22;10388;52.314;7.938;2023-10-31T04:52:49;9.70;99.90
20459;DHT22;10388;52.314;7.938;2023-10-31T04:55:20;9.70;99.90
20459;DHT22;10388;52.314;7.938;2023-10-31T04:57:50;9.70;99.90
20459;DHT22;10388;52.314;7.938;2023-10-31T05:00:21;9.70;99.90
20459;DHT22;10388;52.314;7.938;2023-10-31T05:02:51;9.70;99.90
20459;DHT22;10388;52.314;7.938;2023-10-31T05:05:22;9.70;99.90
20459;DHT22;10388;52.314;7.938;2023-10-31T05:07:52;9.70;99.90
20459;DHT22;10388;52.314;7.938;2023-10-31T05:10:23;9.70;99.90
20459;DHT22;10388;52.314;7.938;2023-10-31T05:12:53;9.70;99.90
20459;DHT22;10388;52.314;7.938;2023-10-31T05:15:24;9.70;99.90
20459;DHT22;10388;52.314;7.938;2023-10-31T05:17:54;9.70;99.90
20459;DHT22;10388;52.314;7.938;2023-10-31T05:20:25;9.70;99.90
20459;DHT22;10388;52.314;7.938;2023-10-31T05:22:55;9.70;99.90
20459;DHT22;10388;52.314;7.938;2023-10-31T05:25:26;9.70;99.90
20459;DHT22;10388;52.314;7.938;2023-10-31T05:27:56;9.70;99.90
20459;DHT22;10388;52.314;7.938;2023-10-31T05:30:27;9.70;99.90
20459;DHT22;10388;52.314;7.938;2023-10-31T05:32:57;9.70;99.90
20459;DHT22;10388;52.314;7.938;2023-10-31T05:35:28;9.70;99.90
20459;DHT22;10388;52.314;7.938;2023-10-31T05:37:58;9.70;99.90
20459;DHT22;10388;52.314;7.938;2023-10-31T05:40:29;9.70;99.90
20459;DHT22;10388;52.314;7.938;2023-10-31T05:42:59;9.70;99.90
20459;DHT22;10388;52.314;7.938;2023-10-31T05:45:30;9.60;99.90
20459;DHT22;10388;52.314;7.938;2023-10-31T05:48:01;9.70;99.90
20459;DHT22;10388;52.314;7.938;2023-10-31T05:50:31;9.70;99.90
20459;DHT22;10388;52.314;7.938;2023-10-31T05:53:02;9.70;99.90
20459;DHT22;10388;52.314;7.938;2023-10-31T05:55:32;9.70;99.90
20459;DHT22;10388;52.314;7.938;2023-10-31T05:58:04;9.70;99.90
20459;DHT22;10388;52.314;7.938;2023-10-31T06:00:35;9.70;99.90
20459;DHT22;10388;52.314;7.938;2023-10-31T06:03:07;9.60;99.90
20459;DHT22;10388;52.314;7.938;2023-10-31T06:05:39;9.60;99.90
20459;DHT22;10388;52.314;7.938;2023-10-31T06:08:10;9.60;99.90
20459;DHT22;10388;52.314;7.938;2023-10-31T06:10:40;9.60;99.90
20459;DHT22;10388;52.314;7.938;2023-10-31T06:13:11;9.60;99.90
20459;DHT22;10388;52.314;7.938;2023-10-31T06:15:41;9.60;99.90
20459;DHT22;10388;52.314;7.938;2023-10-31T06:18:12;9.60;99.90
20459;DHT22;10388;52.314;7.938;2023-10-31T06:20:43;9.60;99.90
20459;DHT22;10388;52.314;7.938;2023-10-31T06:23:13;9.60;99.90
20459;DHT22;10388;52.314;7.938;2023-10-31T06:25:44;9.50;99.90
20459;DHT22;10388;52.314;7.938;2023-10-31T06:28:15;9.50;99.90
20459;DHT22;10388;52.314;7.938;2023-10-31T06:30:45;9.50;99.90
20459;DHT22;10388;52.314;7.938;2023-10-31T06:33:16;9.60;99.90
20459;DHT22;10388;52.314;7.938;2023-10-31T06:35:46;9.50;99.90
20459;DHT22;10388;52.314;7.938;2023-10-31T06:38:17;9.50;99.90
20459;DHT22;10388;52.314;7.938;2023-10-31T06:40:47;9.60;99.90
20459;DHT22;10388;52.314;7.938;2023-10-31T06:43:18;9.50;99.90
20459;DHT22;10388;52.314;7.938;2023-10-31T06:45:48;9.50;99.90
20459;DHT22;10388;52.314;7.938;2023-10-31T06:48:19;9.50;99.90
20459;DHT22;10388;52.314;7.938;2023-10-31T06:50:49;9.50;99.90
20459;DHT22;10388;52.314;7.938;2023-10-31T06:53:20;9.50;99.90
20459;DHT22;10388;52.314;7.938;2023-10-31T06:55:50;9.50;99.90
20459;DHT22;10388;52.314;7.938;2023-10-31T06:58:21;9.50;99.90
20459;DHT22;10388;52.314;7.938;2023-10-31T07:00:52;9.60;99.90
20459;DHT22;10388;52.314;7.938;2023-10-31T07:03:22;9.50;99.90
20459;DHT22;10388;52.314;7.938;2023-10-31T07:05:53;9.50;99.90
20459;DHT22;10388;52.314;7.938;2023-10-31T07:08:23;9.60;99.90
20459;DHT22;10388;52.314;7.938;2023-10-31T07:10:54;9.60;99.90
20459;DHT22;10388;52.314;7.938;2023-10-31T07:13:24;9.60;99.90
20459;DHT22;10388;52.314;7.938;2023-10-31T07:15:55;9.60;99.90
20459;DHT22;10388;52.314;7.938;2023-10-31T07:18:25;9.70;99.90
20459;DHT22;10388;52.314;7.938;2023-10-31T07:20:56;9.70;99.90
20459;DHT22;10388;52.314;7.938;2023-10-31T07:23:27;9.70;99.90
20459;DHT22;10388;52.314;7.938;2023-10-31T07:25:57;9.70;99.90
20459;DHT22;10388;52.314;7.938;2023-10-31T07:28:28;9.70;99.90
20459;DHT22;10388;52.314;7.938;2023-10-31T07:30:59;9.80;99.90
20459;DHT22;10388;52.314;7.938;2023-10-31T07:33:31;9.80;99.90
20459;DHT22;10388;52.314;7.938;2023-10-31T07:36:01;9.90;99.90
20459;DHT22;10388;52.314;7.938;2023-10-31T07:38:32;9.90;99.90
20459;DHT22;10388;52.314;7.938;2023-10-31T07:41:04;10.00;99.90
20459;DHT22;10388;52.314;7.938;2023-10-31T07:43:34;10.00;99.90
20459;DHT22;10388;52.314;7.938;2023-10-31T07:46:05;10.00;99.90
20459;DHT22;10388;52.314;7.938;2023-10-31T07:48:35;10.00;99.90
20459;DHT22;10388;52.314;7.938;2023-10-31T07:51:06;10.00;99.90
20459;DHT22;10388;52.314;7.938;2023-10-31T07:53:36;10.00;99.90
20459;DHT22;10388;52.314;7.938;2023-10-31T07:56:17;10.10;99.90
20459;DHT22;10388;52.314;7.938;2023-10-31T07:58:49;10.10;99.90
20459;DHT22;10388;52.314;7.938;2023-10-31T08:01:20;10.10;99.90
20459;DHT22;10388;52.314;7.938;2023-10-31T08:03:51;10.10;99.90
20459;DHT22;10388;52.314;7.938;2023-10-31T08:06:22;10.10;99.90
20459;DHT22;10388;52.314;7.938;2023-10-31T08:08:53;10.10;99.90
20459;DHT22;10388;52.314;7.938;2023-10-31T08:11:23;10.20;99.90
20459;DHT22;10388;52.314;7.938;2023-10-31T08:14:47;10.20;99.90
20459;DHT22;10388;52.314;7.938;2023-10-31T08:17:17;10.20;99.90
20459;DHT22;10388;52.314;7.938;2023-10-31T08:19:48;10.30;99.90
20459;DHT22;10388;52.314;7.938;2023-10-31T08:22:18;10.30;99.90
20459;DHT22;10388;52.314;7.938;2023-10-31T08:24:49;10.30;99.90
20459;DHT22;10388;52.314;7.938;2023-10-31T08:27:19;10.30;99.90
20459;DHT22;10388;52.314;7.938;2023-10-31T08:29:50;10.30;99.90
20459;DHT22;10388;52.314;7.938;2023-10-31T08:32:20;10.40;99.90
20459;DHT22;10388;52.314;7.938;2023-10-31T08:34:52;10.40;99.90
20459;DHT22;10388;52.314;7.938;2023-10-31T08:37:24;10.50;99.90
20459;DHT22;10388;52.314;7.938;2023-10-31T08:39:55;10.60;99.90
20459;DHT22;10388;52.314;7.938;2023-10-31T08:42:25;10.50;99.90
20459;DHT22;10388;52.314;7.938;2023-10-31T08:44:56;10.50;99.90
20459;DHT22;10388;52.314;7.938;2023-10-31T08:47:26;10.60;99.90
20459;DHT22;10388;52.314;7.938;2023-10-31T08:49:58;10.50;99.90
20459;DHT22;10388;52.314;7.938;2023-10-31T08:52:28;10.50;99.90
20459;DHT22;10388;52.314;7.938;2023-10-31T08:54:59;10.60;99.90
20459;DHT22;10388;52.314;7.938;2023-10-31T08:57:30;10.60;99.90
20459;DHT22;10388;52.314;7.938;2023-10-31T09:00:00;10.60;99.90
20459;DHT22;10388;52.314;7.938;2023-10-31T09:02:31;10.60;99.90
20459;DHT22;10388;52.314;7.938;2023-10-31T09:05:01;10.50;99.90
20459;DHT22;10388;52.314;7.938;2023-10-31T09:07:32;10.50;99.90
20459;DHT22;10388;52.314;7.938;2023-10-31T09:10:02;10.60;99.90
20459;DHT22;10388;52.314;7.938;2023-10-31T09:12:35;10.60;99.90
20459;DHT22;10388;52.314;7.938;2023-10-31T09:15:06;10.60;99.90
20459;DHT22;10388;52.314;7.938;2023-10-31T09:17:37;10.60;99.90
20459;DHT22;10388;52.314;7.938;2023-10-31T09:20:08;10.60;99.90
20459;DHT22;10388;52.314;7.938;2023-10-31T09:22:38;10.60;99.90
20459;DHT22;10388;52.314;7.938;2023-10-31T09:25:09;10.60;99.90
20459;DHT22;10388;52.314;7.938;2023-10-31T09:27:41;10.50;99.90
20459;DHT22;10388;52.314;7.938;2023-10-31T09:30:12;10.50;99.90
20459;DHT22;10388;52.314;7.938;2023-10-31T09:32:42;10.50;99.90
20459;DHT22;10388;52.314;7.938;2023-10-31T09:35:13;10.50;99.90
20459;DHT22;10388;52.314;7.938;2023-10-31T09:37:44;10.60;99.90
20459;DHT22;10388;52.314;7.938;2023-10-31T09:40:18;10.60;99.90
20459;DHT22;10388;52.314;7.938;2023-10-31T09:42:49;10.60;99.90
20459;DHT22;10388;52.314;7.938;2023-10-31T09:45:19;10.60;99.90
20459;DHT22;10388;52.314;7.938;2023-10-31T09:47:50;10.60;99.90
20459;DHT22;10388;52.314;7.938;2023-10-31T09:50:21;10.60;99.90
20459;DHT22;10388;52.314;7.938;2023-10-31T09:52:52;10.60;99.90
20459;DHT22;10388;52.314;7.938;2023-10-31T09:55:24;10.60;99.90
20459;DHT22;10388;52.314;7.938;2023-10-31T09:57:55;10.60;99.90
20459;DHT22;10388;52.314;7.938;2023-10-31T10:00:25;10.60;99.90
20459;DHT22;10388;52.314;7.938;2023-10-31T10:02:57;10.80;99.90
20459;DHT22;10388;52.314;7.938;2023-10-31T10:05:30;11.00;99.90
20459;DHT22;10388;52.314;7.938;2023-10-31T10:08:01;11.40;99.90
20459;DHT22;10388;52.314;7.938;2023-10-31T10:10:33;11.60;99.90
20459;DHT22;10388;52.314;7.938;2023-10-31T10:13:04;11.70;99.90
20459;DHT22;10388;52.314;7.938;2023-10-31T10:15:47;11.70;99.90
20459;DHT22;10388;52.314;7.938;2023-10-31T10:18:27;11.70;99.90
20459;DHT22;10388;52.314;7.938;2023-10-31T10:21:02;11.50;99.90
20459;DHT22;10388;52.314;7.938;2023-10-31T10:23:33;11.40;99.90
20459;DHT22;10388;52.314;7.938;2023-10-31T10:26:04;11.40;99.90
20459;DHT22;10388;52.314;7.938;2023-10-31T10:28:36;11.30;99.90
20459;DHT22;10388;52.314;7.938;2023-10-31T10:31:06;11.30;99.90
20459;DHT22;10388;52.314;7.938;2023-10-31T10:33:40;11.40;99.90
